N225NS KDUX-KLVS
Flight info
| Callsign | N225NS |
|---|---|
| Flight time | N/A |
| Altitude | 10000 |
| Route | ASOYA |
| Aircraft | C310/L-SDFGR/S |
Departure
| Time | 2026-05-07 17:22 |
|---|---|
| Airport | Moore County Airport (KDUX) |
Arrival
| Time | N/A |
|---|---|
| Airport | Las Vegas Municipal Airport (KLVS) |
| Time | Latitude | Longitude | Altitude | Speed | Heading |
|---|---|---|---|---|---|
| 2026-05-07 17:22 | 35.83730 | -102.02940 | 5132 ft | 108 kts | 283° |
| 2026-05-07 17:22 | 35.83910 | -102.03850 | 5406 ft | 110 kts | 273° |
| 2026-05-07 17:22 | 35.83962 | -102.04785 | 5654 ft | 112 kts | 270° |
| 2026-05-07 17:23 | 35.83990 | -102.05813 | 5784 ft | 122 kts | 271° |
| 2026-05-07 17:23 | 35.83951 | -102.06795 | 6201 ft | 114 kts | 263° |
| 2026-05-07 17:23 | 35.83801 | -102.07842 | 6168 ft | 135 kts | 258° |
| 2026-05-07 17:23 | 35.83680 | -102.09024 | 6188 ft | 144 kts | 281° |
| 2026-05-07 17:24 | 35.84032 | -102.10205 | 6228 ft | 153 kts | 290° |
| 2026-05-07 17:24 | 35.84398 | -102.11482 | 6273 ft | 162 kts | 283° |
| 2026-05-07 17:24 | 35.84615 | -102.12878 | 6313 ft | 169 kts | 277° |
| 2026-05-07 17:24 | 35.84732 | -102.14346 | 6313 ft | 174 kts | 273° |
| 2026-05-07 17:25 | 35.84793 | -102.15830 | 6328 ft | 176 kts | 271° |
| 2026-05-07 17:25 | 35.84830 | -102.17334 | 6354 ft | 176 kts | 271° |
| 2026-05-07 17:25 | 35.84834 | -102.18855 | 6340 ft | 178 kts | 267° |
| 2026-05-07 17:25 | 35.84743 | -102.20378 | 6361 ft | 177 kts | 265° |
| 2026-05-07 17:26 | 35.84659 | -102.21895 | 6391 ft | 177 kts | 265° |
| 2026-05-07 17:26 | 35.84575 | -102.23403 | 6412 ft | 179 kts | 266° |
| 2026-05-07 17:26 | 35.84498 | -102.24948 | 6447 ft | 180 kts | 266° |
| 2026-05-07 17:26 | 35.84412 | -102.26486 | 6463 ft | 179 kts | 266° |
| 2026-05-07 17:27 | 35.84329 | -102.28011 | 6484 ft | 178 kts | 266° |
| 2026-05-07 17:27 | 35.84249 | -102.29525 | 6512 ft | 177 kts | 266° |
| 2026-05-07 17:27 | 35.84167 | -102.31016 | 6530 ft | 175 kts | 266° |
| 2026-05-07 17:27 | 35.84087 | -102.32522 | 6567 ft | 177 kts | 266° |
| 2026-05-07 17:28 | 35.84001 | -102.34048 | 6593 ft | 179 kts | 266° |
| 2026-05-07 17:28 | 35.83918 | -102.35593 | 6634 ft | 181 kts | 267° |
| 2026-05-07 17:28 | 35.83834 | -102.37140 | 6650 ft | 180 kts | 267° |
| 2026-05-07 17:28 | 35.83752 | -102.38665 | 6675 ft | 180 kts | 266° |
| 2026-05-07 17:29 | 35.83662 | -102.40218 | 6684 ft | 181 kts | 266° |
| 2026-05-07 17:29 | 35.83581 | -102.41777 | 6698 ft | 182 kts | 266° |
| 2026-05-07 17:29 | 35.83492 | -102.43336 | 6716 ft | 182 kts | 266° |
| 2026-05-07 17:29 | 35.83405 | -102.44875 | 6741 ft | 181 kts | 266° |
| 2026-05-07 17:30 | 35.83321 | -102.46423 | 6758 ft | 179 kts | 266° |
| 2026-05-07 17:30 | 35.83236 | -102.47961 | 6791 ft | 178 kts | 266° |
| 2026-05-07 17:30 | 35.83150 | -102.49500 | 6802 ft | 179 kts | 266° |
| 2026-05-07 17:30 | 35.83064 | -102.51012 | 6844 ft | 179 kts | 266° |
| 2026-05-07 17:31 | 35.82977 | -102.52546 | 6879 ft | 178 kts | 266° |
| 2026-05-07 17:31 | 35.82890 | -102.54070 | 6903 ft | 178 kts | 266° |
| 2026-05-07 17:31 | 35.82804 | -102.55596 | 6912 ft | 178 kts | 266° |
| 2026-05-07 17:31 | 35.82718 | -102.57099 | 6939 ft | 177 kts | 266° |
| 2026-05-07 17:32 | 35.82633 | -102.58618 | 6953 ft | 177 kts | 266° |
| 2026-05-07 17:32 | 35.82547 | -102.60143 | 6980 ft | 178 kts | 266° |
| 2026-05-07 17:32 | 35.82461 | -102.61672 | 7018 ft | 178 kts | 266° |
| 2026-05-07 17:32 | 35.82404 | -102.62685 | 7037 ft | 178 kts | 266° |
| 2026-05-07 17:33 | 35.82289 | -102.64718 | 7051 ft | 179 kts | 266° |
| 2026-05-07 17:33 | 35.82201 | -102.66247 | 7055 ft | 178 kts | 266° |
| 2026-05-07 17:33 | 35.82110 | -102.67766 | 7097 ft | 179 kts | 266° |
| 2026-05-07 17:33 | 35.82029 | -102.69307 | 7139 ft | 181 kts | 267° |
| 2026-05-07 17:34 | 35.81947 | -102.70864 | 7181 ft | 182 kts | 267° |
| 2026-05-07 17:34 | 35.81877 | -102.72313 | 7192 ft | 156 kts | 267° |
| 2026-05-07 17:34 | 35.81824 | -102.73432 | 7106 ft | 117 kts | 266° |
| 2026-05-07 17:34 | 35.81778 | -102.74421 | 6790 ft | 116 kts | 266° |
| 2026-05-07 17:35 | 35.81733 | -102.75357 | 6678 ft | 100 kts | 267° |
| 2026-05-07 17:35 | 35.81693 | -102.76188 | 6516 ft | 96 kts | 267° |
| 2026-05-07 17:35 | 35.81650 | -102.76985 | 6314 ft | 96 kts | 256° |
| 2026-05-07 17:35 | 35.81473 | -102.77811 | 6440 ft | 104 kts | 258° |
| 2026-05-07 17:36 | 35.81336 | -102.78692 | 6704 ft | 103 kts | 259° |
| 2026-05-07 17:36 | 35.81195 | -102.79621 | 6767 ft | 119 kts | 259° |
| 2026-05-07 17:36 | 35.81032 | -102.80683 | 6794 ft | 132 kts | 260° |
| 2026-05-07 17:36 | 35.80854 | -102.81831 | 6821 ft | 140 kts | 259° |
| 2026-05-07 17:37 | 35.80669 | -102.83028 | 6845 ft | 146 kts | 259° |
| 2026-05-07 17:37 | 35.80474 | -102.84284 | 6856 ft | 150 kts | 259° |
| 2026-05-07 17:37 | 35.80274 | -102.85567 | 6886 ft | 154 kts | 259° |
| 2026-05-07 17:37 | 35.80069 | -102.86883 | 6903 ft | 158 kts | 259° |
| 2026-05-07 17:38 | 35.79859 | -102.88224 | 6925 ft | 161 kts | 259° |
| 2026-05-07 17:38 | 35.79648 | -102.89571 | 6938 ft | 162 kts | 260° |
| 2026-05-07 17:38 | 35.79431 | -102.90940 | 6973 ft | 163 kts | 259° |
| 2026-05-07 17:38 | 35.79213 | -102.92322 | 7007 ft | 165 kts | 259° |
| 2026-05-07 17:39 | 35.78993 | -102.93703 | 7005 ft | 165 kts | 259° |
| 2026-05-07 17:39 | 35.78773 | -102.95087 | 7029 ft | 165 kts | 259° |
| 2026-05-07 17:39 | 35.78548 | -102.96488 | 7080 ft | 167 kts | 260° |
| 2026-05-07 17:39 | 35.78323 | -102.97897 | 7127 ft | 168 kts | 260° |
| 2026-05-07 17:40 | 35.78095 | -102.99315 | 7135 ft | 169 kts | 259° |
| 2026-05-07 17:40 | 35.77936 | -103.00742 | 7136 ft | 167 kts | 275° |
| 2026-05-07 17:40 | 35.78505 | -103.01950 | 7154 ft | 172 kts | 320° |
| 2026-05-07 17:40 | 35.79657 | -103.02352 | 7178 ft | 177 kts | 358° |
| 2026-05-07 17:41 | 35.80891 | -103.02229 | 7224 ft | 177 kts | 4° |
| 2026-05-07 17:41 | 35.82119 | -103.02012 | 7252 ft | 177 kts | 5° |
| 2026-05-07 17:41 | 35.83330 | -103.02002 | 7265 ft | 173 kts | 338° |
| 2026-05-07 17:41 | 35.84213 | -103.02925 | 7292 ft | 168 kts | 295° |
| 2026-05-07 17:42 | 35.84283 | -103.04301 | 7320 ft | 168 kts | 252° |
| 2026-05-07 17:42 | 35.83726 | -103.05567 | 7340 ft | 168 kts | 240° |
| 2026-05-07 17:42 | 35.83081 | -103.06770 | 7380 ft | 168 kts | 237° |
| 2026-05-07 17:42 | 35.82424 | -103.07942 | 7407 ft | 168 kts | 238° |
| 2026-05-07 17:43 | 35.81755 | -103.09123 | 7411 ft | 167 kts | 237° |
| 2026-05-07 17:43 | 35.81088 | -103.10287 | 7433 ft | 165 kts | 237° |
| 2026-05-07 17:43 | 35.80456 | -103.11455 | 7446 ft | 163 kts | 244° |
| 2026-05-07 17:43 | 35.80014 | -103.12718 | 7473 ft | 162 kts | 251° |
| 2026-05-07 17:44 | 35.79694 | -103.14051 | 7491 ft | 161 kts | 257° |
| 2026-05-07 17:44 | 35.79459 | -103.15399 | 7523 ft | 161 kts | 260° |
| 2026-05-07 17:44 | 35.79258 | -103.16742 | 7553 ft | 161 kts | 261° |
| 2026-05-07 17:44 | 35.79104 | -103.18109 | 7576 ft | 161 kts | 266° |
| 2026-05-07 17:45 | 35.79030 | -103.19491 | 7604 ft | 161 kts | 267° |
| 2026-05-07 17:45 | 35.78952 | -103.20876 | 7622 ft | 161 kts | 266° |
| 2026-05-07 17:45 | 35.78892 | -103.21782 | 7640 ft | 159 kts | 266° |
| 2026-05-07 17:45 | 35.78778 | -103.23582 | 7666 ft | 157 kts | 266° |
| 2026-05-07 17:46 | 35.78698 | -103.24929 | 7691 ft | 158 kts | 266° |
| 2026-05-07 17:46 | 35.78642 | -103.25821 | 7707 ft | 158 kts | 266° |
| 2026-05-07 17:46 | 35.78556 | -103.27171 | 7743 ft | 158 kts | 266° |
| 2026-05-07 17:46 | 35.78445 | -103.28958 | 7770 ft | 157 kts | 266° |
| 2026-05-07 17:47 | 35.78389 | -103.29862 | 7782 ft | 157 kts | 266° |
| 2026-05-07 17:47 | 35.78305 | -103.31196 | 7809 ft | 155 kts | 266° |
| 2026-05-07 17:47 | 35.78223 | -103.32505 | 7838 ft | 155 kts | 266° |
| 2026-05-07 17:47 | 35.78140 | -103.33830 | 7866 ft | 155 kts | 266° |
| 2026-05-07 17:48 | 35.78057 | -103.35151 | 7887 ft | 155 kts | 267° |
| 2026-05-07 17:48 | 35.77975 | -103.36478 | 7905 ft | 155 kts | 266° |
| 2026-05-07 17:48 | 35.77891 | -103.37787 | 7932 ft | 155 kts | 266° |
| 2026-05-07 17:48 | 35.77805 | -103.39119 | 7958 ft | 155 kts | 266° |
| 2026-05-07 17:49 | 35.77723 | -103.40442 | 7984 ft | 154 kts | 266° |
| 2026-05-07 17:49 | 35.77638 | -103.41760 | 8016 ft | 154 kts | 266° |
| 2026-05-07 17:49 | 35.77555 | -103.43082 | 8036 ft | 154 kts | 266° |
| 2026-05-07 17:49 | 35.77472 | -103.44384 | 8056 ft | 154 kts | 266° |
| 2026-05-07 17:50 | 35.77388 | -103.45708 | 8077 ft | 154 kts | 266° |
| 2026-05-07 17:50 | 35.77303 | -103.47012 | 8104 ft | 154 kts | 266° |
| 2026-05-07 17:50 | 35.77218 | -103.48332 | 8132 ft | 154 kts | 266° |
| 2026-05-07 17:50 | 35.77134 | -103.49656 | 8161 ft | 155 kts | 266° |
| 2026-05-07 17:51 | 35.77051 | -103.50962 | 8178 ft | 154 kts | 266° |
| 2026-05-07 17:51 | 35.76965 | -103.52285 | 8199 ft | 154 kts | 266° |
| 2026-05-07 17:51 | 35.76879 | -103.53602 | 8225 ft | 153 kts | 266° |
| 2026-05-07 17:51 | 35.76795 | -103.54913 | 8253 ft | 153 kts | 266° |
| 2026-05-07 17:52 | 35.76712 | -103.56206 | 8277 ft | 153 kts | 266° |
| 2026-05-07 17:52 | 35.76626 | -103.57519 | 8304 ft | 153 kts | 266° |
| 2026-05-07 17:52 | 35.76540 | -103.58830 | 8336 ft | 153 kts | 266° |
| 2026-05-07 17:52 | 35.76455 | -103.60142 | 8363 ft | 153 kts | 266° |
| 2026-05-07 17:53 | 35.76371 | -103.61445 | 8385 ft | 153 kts | 266° |
| 2026-05-07 17:53 | 35.76287 | -103.62729 | 8402 ft | 152 kts | 266° |
| 2026-05-07 17:53 | 35.76202 | -103.64027 | 8428 ft | 152 kts | 266° |
| 2026-05-07 17:53 | 35.76117 | -103.65320 | 8452 ft | 151 kts | 266° |
| 2026-05-07 17:54 | 35.76032 | -103.66599 | 8469 ft | 150 kts | 266° |
| 2026-05-07 17:54 | 35.75949 | -103.67881 | 8497 ft | 150 kts | 266° |
| 2026-05-07 17:54 | 35.75865 | -103.69172 | 8522 ft | 150 kts | 266° |
| 2026-05-07 17:54 | 35.75781 | -103.70440 | 8548 ft | 150 kts | 266° |
| 2026-05-07 17:55 | 35.75694 | -103.71722 | 8579 ft | 149 kts | 266° |
| 2026-05-07 17:55 | 35.75612 | -103.72980 | 8607 ft | 149 kts | 266° |
| 2026-05-07 17:55 | 35.75529 | -103.74250 | 8625 ft | 148 kts | 266° |
| 2026-05-07 17:55 | 35.75445 | -103.75524 | 8649 ft | 148 kts | 266° |
| 2026-05-07 17:56 | 35.75359 | -103.76786 | 8676 ft | 148 kts | 266° |
| 2026-05-07 17:56 | 35.75277 | -103.78031 | 8703 ft | 148 kts | 266° |
| 2026-05-07 17:56 | 35.75193 | -103.79296 | 8734 ft | 147 kts | 266° |
| 2026-05-07 17:56 | 35.75109 | -103.80555 | 8756 ft | 147 kts | 266° |
| 2026-05-07 17:57 | 35.75025 | -103.81798 | 8781 ft | 147 kts | 266° |
| 2026-05-07 17:57 | 35.74969 | -103.82645 | 8795 ft | 146 kts | 266° |
| 2026-05-07 17:57 | 35.74857 | -103.84293 | 8832 ft | 145 kts | 266° |
| 2026-05-07 17:57 | 35.74776 | -103.85527 | 8852 ft | 144 kts | 266° |
| 2026-05-07 17:58 | 35.74694 | -103.86735 | 8876 ft | 142 kts | 266° |
| 2026-05-07 17:58 | 35.74613 | -103.87949 | 8902 ft | 141 kts | 266° |
| 2026-05-07 17:58 | 35.74531 | -103.89150 | 8926 ft | 140 kts | 265° |
| 2026-05-07 17:58 | 35.74452 | -103.90321 | 8953 ft | 138 kts | 266° |
| 2026-05-07 17:59 | 35.74371 | -103.91491 | 8978 ft | 136 kts | 266° |
| 2026-05-07 17:59 | 35.74295 | -103.92640 | 9000 ft | 134 kts | 266° |
| 2026-05-07 17:59 | 35.74217 | -103.93779 | 9028 ft | 132 kts | 266° |
| 2026-05-07 17:59 | 35.74140 | -103.94884 | 9049 ft | 130 kts | 266° |
| 2026-05-07 18:00 | 35.74067 | -103.95984 | 9074 ft | 128 kts | 268° |
| 2026-05-07 18:00 | 35.73995 | -103.97065 | 9107 ft | 126 kts | 266° |
| 2026-05-07 18:00 | 35.73922 | -103.98121 | 9140 ft | 122 kts | 266° |
| 2026-05-07 18:00 | 35.73851 | -103.99149 | 9170 ft | 119 kts | 266° |
| 2026-05-07 18:01 | 35.73783 | -104.00145 | 9197 ft | 117 kts | 266° |
| 2026-05-07 18:01 | 35.73715 | -104.01137 | 9220 ft | 115 kts | 267° |
| 2026-05-07 18:01 | 35.73649 | -104.02111 | 9234 ft | 113 kts | 266° |
| 2026-05-07 18:01 | 35.73583 | -104.03063 | 9254 ft | 110 kts | 266° |
| 2026-05-07 18:02 | 35.73457 | -104.04900 | 9261 ft | 106 kts | 267° |
| 2026-05-07 18:02 | 35.73395 | -104.05795 | 9257 ft | 106 kts | 267° |
| 2026-05-07 18:02 | 35.73332 | -104.06701 | 9238 ft | 106 kts | 266° |
| 2026-05-07 18:03 | 35.73269 | -104.07603 | 9234 ft | 106 kts | 266° |
| 2026-05-07 18:03 | 35.73207 | -104.08508 | 9223 ft | 105 kts | 266° |
| 2026-05-07 18:03 | 35.73146 | -104.09398 | 9217 ft | 105 kts | 267° |
| 2026-05-07 18:03 | 35.73084 | -104.10298 | 9219 ft | 105 kts | 266° |
| 2026-05-07 18:04 | 35.73021 | -104.11197 | 9220 ft | 105 kts | 266° |
| 2026-05-07 18:04 | 35.72959 | -104.12095 | 9223 ft | 105 kts | 266° |
| 2026-05-07 18:04 | 35.72896 | -104.12996 | 9219 ft | 105 kts | 266° |
| 2026-05-07 18:04 | 35.72834 | -104.13885 | 9217 ft | 105 kts | 266° |
| 2026-05-07 18:05 | 35.72772 | -104.14789 | 9215 ft | 105 kts | 266° |
| 2026-05-07 18:05 | 35.72710 | -104.15690 | 9205 ft | 106 kts | 266° |
| 2026-05-07 18:05 | 35.72646 | -104.16594 | 9196 ft | 106 kts | 266° |
| 2026-05-07 18:05 | 35.72583 | -104.17487 | 9196 ft | 106 kts | 265° |
| 2026-05-07 18:06 | 35.72519 | -104.18393 | 9215 ft | 106 kts | 266° |
| 2026-05-07 18:06 | 35.72456 | -104.19298 | 9221 ft | 106 kts | 266° |
| 2026-05-07 18:06 | 35.72393 | -104.20197 | 9231 ft | 105 kts | 266° |
| 2026-05-07 18:06 | 35.72329 | -104.21095 | 9211 ft | 105 kts | 266° |
| 2026-05-07 18:07 | 35.72267 | -104.21995 | 9202 ft | 106 kts | 266° |
| 2026-05-07 18:07 | 35.72206 | -104.22902 | 9184 ft | 106 kts | 265° |
| 2026-05-07 18:07 | 35.72141 | -104.23799 | 9174 ft | 106 kts | 265° |
| 2026-05-07 18:07 | 35.72075 | -104.24707 | 9164 ft | 106 kts | 265° |
| 2026-05-07 18:08 | 35.72010 | -104.25615 | 9151 ft | 104 kts | 265° |
| 2026-05-07 18:08 | 35.71964 | -104.26496 | 8973 ft | 103 kts | 268° |
| 2026-05-07 18:08 | 35.71941 | -104.27372 | 8790 ft | 102 kts | 269° |
| 2026-05-07 18:08 | 35.71926 | -104.28242 | 8609 ft | 101 kts | 270° |
| 2026-05-07 18:09 | 35.71917 | -104.29068 | 8086 ft | 76 kts | 273° |
| 2026-05-07 18:09 | 35.72069 | -104.29183 | 5671 ft | 10 kts | 113° |